createdAt,value
2018-03-26T00:00:04.141Z,33.50
2018-03-26T00:02:32.406Z,32.43
2018-03-26T00:04:59.914Z,30.03
2018-03-26T00:07:28.174Z,34.40
2018-03-26T00:09:55.646Z,31.47
2018-03-26T00:12:23.399Z,35.83
2018-03-26T00:14:50.874Z,34.93
2018-03-26T00:17:18.364Z,35.53
2018-03-26T00:19:45.858Z,37.30
2018-03-26T00:22:14.094Z,37.87
2018-03-26T00:24:41.602Z,39.13
2018-03-26T00:27:09.858Z,36.53
2018-03-26T00:29:37.338Z,36.70
2018-03-26T00:32:04.820Z,39.80
2018-03-26T00:34:32.314Z,36.60
2018-03-26T00:37:00.547Z,38.50
2018-03-26T00:39:28.052Z,37.00
2018-03-26T00:41:55.522Z,37.70
2018-03-26T00:44:23.784Z,38.97
2018-03-26T00:46:51.277Z,37.97
2018-03-26T00:49:18.773Z,37.10
2018-03-26T00:51:47.025Z,39.10
2018-03-26T00:54:14.502Z,36.83
2018-03-26T00:56:42.003Z,36.47
2018-03-26T00:59:10.252Z,38.47
2018-03-26T01:01:37.750Z,41.03
2018-03-26T01:04:05.993Z,39.80
2018-03-26T01:06:33.490Z,40.20
2018-03-26T01:09:00.962Z,39.63
2018-03-26T01:11:28.521Z,37.23
2018-03-26T01:13:56.022Z,41.60
2018-03-26T01:16:24.275Z,39.13
2018-03-26T01:18:51.766Z,40.73
2018-03-26T01:21:19.244Z,39.30
2018-03-26T01:23:46.730Z,39.50
2018-03-26T01:26:14.978Z,40.90
2018-03-26T01:28:42.464Z,39.07
2018-03-26T01:31:09.934Z,39.17
2018-03-26T01:33:37.442Z,40.67
2018-03-26T01:36:04.914Z,39.30
2018-03-26T01:38:32.384Z,38.80
2018-03-26T01:40:59.900Z,38.70
2018-03-26T01:43:27.374Z,40.33
2018-03-26T01:45:54.869Z,39.10
2018-03-26T01:48:23.214Z,37.57
2018-03-26T01:50:50.727Z,39.77
2018-03-26T01:53:18.202Z,38.80
2018-03-26T01:55:45.742Z,37.67
2018-03-26T01:58:13.213Z,37.33
2018-03-26T02:00:40.853Z,37.03
2018-03-26T02:03:08.326Z,36.87
2018-03-26T02:05:35.839Z,39.10
2018-03-26T02:08:03.342Z,35.93
2018-03-26T02:10:31.582Z,35.73
2018-03-26T02:12:59.088Z,33.77
2018-03-26T02:15:26.570Z,32.37
2018-03-26T02:17:54.851Z,30.93
2018-03-26T02:20:22.354Z,34.90
2018-03-26T02:22:49.883Z,32.07
2018-03-26T02:25:17.370Z,31.17
2018-03-26T02:27:45.614Z,34.80
2018-03-26T02:30:13.113Z,32.53
2018-03-26T02:32:41.363Z,32.93
2018-03-26T02:35:08.875Z,35.63
2018-03-26T02:37:36.372Z,33.80
2018-03-26T02:40:03.863Z,34.87
2018-03-26T02:42:31.362Z,33.67
2018-03-26T02:44:58.874Z,32.93
2018-03-26T02:47:27.138Z,31.20
2018-03-26T02:49:54.646Z,32.03
2018-03-26T02:52:22.135Z,34.27
2018-03-26T02:54:49.609Z,33.13
2018-03-26T02:57:17.105Z,32.70
2018-03-26T02:59:44.586Z,34.60
2018-03-26T03:02:12.096Z,32.20
2018-03-26T03:04:39.613Z,35.90
2018-03-26T03:07:07.147Z,36.00
2018-03-26T03:09:34.618Z,36.20
2018-03-26T03:12:02.103Z,35.00
2018-03-26T03:14:29.580Z,38.90
2018-03-26T03:16:57.076Z,36.07
2018-03-26T03:19:24.552Z,34.57
2018-03-26T03:21:52.021Z,36.47
2018-03-26T03:24:19.510Z,37.40
2018-03-26T03:26:47.758Z,34.50
2018-03-26T03:29:15.245Z,32.47
2018-03-26T03:31:42.715Z,35.27
2018-03-26T03:34:10.219Z,36.57
2018-03-26T03:36:38.466Z,37.50
2018-03-26T03:39:05.963Z,37.33
2018-03-26T03:41:33.435Z,37.07
2018-03-26T03:44:00.939Z,37.30
2018-03-26T03:46:28.423Z,38.13
2018-03-26T03:48:55.904Z,37.63
2018-03-26T03:51:23.390Z,35.07
2018-03-26T03:53:51.738Z,35.50
2018-03-26T03:56:19.283Z,37.00
2018-03-26T03:58:46.757Z,37.67
2018-03-26T04:01:15.614Z,37.67
2018-03-26T04:03:43.095Z,37.60
2018-03-26T04:06:10.582Z,38.23
2018-03-26T04:08:38.066Z,38.17
2018-03-26T04:11:05.560Z,39.87
2018-03-26T04:13:33.035Z,39.80
2018-03-26T04:16:00.520Z,39.17
2018-03-26T04:18:28.021Z,39.20
2018-03-26T04:20:55.502Z,40.27
2018-03-26T04:23:22.991Z,40.10
2018-03-26T04:25:51.296Z,39.43
2018-03-26T04:28:18.764Z,40.33
2018-03-26T04:30:46.250Z,40.70
2018-03-26T04:33:13.746Z,41.50
2018-03-26T04:35:41.223Z,40.17
2018-03-26T04:38:08.710Z,42.00
2018-03-26T04:40:36.194Z,43.27
2018-03-26T04:43:03.680Z,44.00
2018-03-26T04:45:31.954Z,42.77
2018-03-26T04:47:59.448Z,42.20
2018-03-26T04:50:27.723Z,41.33
2018-03-26T04:52:55.194Z,43.03
2018-03-26T04:55:23.450Z,41.83
2018-03-26T04:57:50.935Z,40.63
2018-03-26T05:00:18.452Z,38.27
2018-03-26T05:02:45.947Z,43.00
2018-03-26T05:05:13.426Z,40.60
2018-03-26T05:07:40.928Z,40.27
2018-03-26T05:10:08.432Z,42.00
2018-03-26T05:12:35.943Z,40.80
2018-03-26T05:15:03.422Z,44.03
2018-03-26T05:17:30.905Z,41.70
2018-03-26T05:19:58.433Z,38.10
2018-03-26T05:22:25.918Z,39.80
2018-03-26T05:24:53.429Z,39.40
2018-03-26T05:27:20.905Z,40.77
2018-03-26T05:29:49.178Z,41.00
2018-03-26T05:32:16.883Z,39.30
2018-03-26T05:34:45.213Z,41.47
2018-03-26T05:37:12.736Z,40.07
2018-03-26T05:39:40.988Z,42.07
2018-03-26T05:42:08.536Z,39.70
2018-03-26T05:44:36.030Z,39.10
2018-03-26T05:47:03.531Z,41.43
2018-03-26T05:49:31.807Z,48.10
2018-03-26T05:51:59.305Z,43.77
2018-03-26T05:54:27.541Z,40.90
2018-03-26T05:56:55.050Z,40.67
2018-03-26T05:59:22.518Z,42.23
2018-03-26T06:01:50.022Z,43.60
2018-03-26T06:04:17.506Z,41.33
2018-03-26T06:06:45.030Z,44.90
2018-03-26T06:09:12.518Z,43.37
2018-03-26T06:11:40.763Z,40.20
2018-03-26T06:14:08.309Z,39.30
2018-03-26T06:19:43.271Z,40.27
2018-03-26T06:22:11.510Z,39.53
2018-03-26T06:24:39.005Z,40.20
2018-03-26T06:27:07.247Z,38.67
2018-03-26T06:29:34.751Z,41.40
2018-03-26T06:32:02.991Z,42.33
2018-03-26T06:34:30.486Z,39.90
2018-03-26T06:37:12.871Z,39.80
2018-03-26T06:39:40.347Z,40.60
2018-03-26T06:42:08.615Z,34.40
2018-03-26T06:44:36.850Z,39.70
2018-03-26T06:47:04.351Z,39.67
2018-03-26T06:49:32.593Z,41.37
2018-03-26T06:52:00.099Z,38.77
2018-03-26T06:54:27.598Z,39.30
2018-03-26T06:56:55.070Z,39.33
2018-03-26T06:59:22.586Z,42.73
2018-03-26T07:01:50.059Z,39.13
2018-03-26T07:04:17.529Z,40.20
2018-03-26T07:06:45.036Z,39.77
2018-03-26T07:09:13.285Z,44.23
2018-03-26T07:11:40.781Z,41.50
2018-03-26T07:14:09.043Z,38.20
2018-03-26T07:16:37.310Z,41.43
2018-03-26T07:19:04.822Z,38.63
2018-03-26T07:21:32.301Z,37.30
2018-03-26T07:23:59.805Z,45.13
2018-03-26T07:26:28.041Z,42.03
2018-03-26T07:28:55.570Z,41.03
2018-03-26T07:31:23.051Z,43.30
2018-03-26T07:33:50.525Z,37.90
2018-03-26T07:36:18.036Z,42.73
2018-03-26T07:38:45.526Z,44.10
2018-03-26T07:41:13.081Z,38.20
2018-03-26T07:43:40.544Z,41.80
2018-03-26T07:46:08.048Z,40.43
2018-03-26T07:48:36.263Z,39.27
2018-03-26T07:51:03.799Z,37.83
2018-03-26T07:53:31.270Z,41.60
2018-03-26T07:55:58.772Z,36.40
2018-03-26T07:58:26.276Z,37.90
2018-03-26T08:00:53.750Z,40.27
2018-03-26T08:03:21.221Z,41.57
2018-03-26T08:05:48.715Z,38.93
2018-03-26T08:08:16.184Z,41.63
2018-03-26T08:10:44.447Z,38.57
2018-03-26T08:13:11.918Z,36.27
2018-03-26T08:15:40.192Z,35.67
2018-03-26T08:18:08.431Z,35.87
2018-03-26T08:20:35.944Z,35.83
2018-03-26T08:23:03.418Z,38.77
2018-03-26T08:25:30.932Z,34.93
2018-03-26T08:27:59.183Z,30.67
2018-03-26T08:30:26.679Z,33.30
2018-03-26T08:32:54.919Z,36.53
2018-03-26T08:35:22.430Z,31.40
2018-03-26T08:37:49.925Z,35.97
2018-03-26T08:40:17.398Z,32.97
2018-03-26T08:42:45.021Z,31.43
2018-03-26T08:45:12.542Z,30.70
2018-03-26T08:47:39.996Z,28.93
2018-03-26T08:50:07.598Z,25.53
2018-03-26T08:52:35.010Z,26.47
2018-03-26T08:55:02.495Z,22.60
2018-03-26T08:57:29.970Z,22.10
2018-03-26T08:59:57.476Z,20.40
2018-03-26T09:02:24.953Z,20.97
2018-03-26T09:04:53.218Z,20.97
2018-03-26T09:07:20.729Z,20.40
2018-03-26T09:09:48.204Z,19.03
2018-03-26T09:12:15.707Z,19.07
2018-03-26T09:14:43.946Z,23.23
2018-03-26T09:17:11.446Z,24.77
2018-03-26T09:19:38.965Z,19.70
2018-03-26T09:22:06.447Z,23.63
2018-03-26T09:24:33.944Z,19.83
2018-03-26T09:27:01.447Z,18.33
2018-03-26T09:29:28.942Z,15.57
2018-03-26T09:31:57.186Z,15.77
2018-03-26T09:34:24.707Z,14.23
2018-03-26T09:36:52.213Z,12.83
2018-03-26T09:39:19.690Z,10.10
2018-03-26T09:41:47.955Z,7.43
2018-03-26T09:44:16.198Z,7.37
2018-03-26T09:46:43.676Z,8.97
2018-03-26T09:49:11.178Z,8.17
2018-03-26T09:51:38.655Z,9.00
2018-03-26T09:54:06.157Z,4.83
2018-03-26T09:56:33.659Z,6.30
2018-03-26T09:59:01.150Z,4.33
2018-03-26T10:01:32.635Z,3.87
2018-03-26T10:04:00.903Z,5.40
2018-03-26T10:06:28.406Z,6.90
2018-03-26T10:08:56.645Z,6.70
2018-03-26T10:11:24.919Z,7.90
2018-03-26T10:13:53.156Z,8.67
2018-03-26T10:16:20.666Z,8.27
2018-03-26T10:18:48.938Z,8.37
2018-03-26T10:21:17.203Z,8.87
2018-03-26T10:23:44.692Z,8.87
2018-03-26T10:26:12.185Z,9.87
2018-03-26T10:28:39.675Z,10.53
2018-03-26T10:31:07.178Z,10.70
2018-03-26T10:33:34.678Z,10.00
2018-03-26T10:36:02.158Z,8.40
2018-03-26T10:38:30.477Z,8.63
2018-03-26T10:40:58.712Z,8.20
2018-03-26T10:43:26.955Z,8.77
2018-03-26T10:45:54.423Z,9.57
2018-03-26T10:48:22.041Z,7.67
2018-03-26T10:50:49.511Z,8.33
2018-03-26T10:53:17.014Z,7.37
2018-03-26T10:55:44.523Z,7.03
2018-03-26T10:58:12.001Z,8.07
2018-03-26T11:00:39.513Z,7.27
2018-03-26T11:03:07.028Z,5.10
2018-03-26T11:05:34.507Z,7.57
2018-03-26T11:08:01.986Z,6.87
2018-03-26T11:10:30.250Z,6.80
2018-03-26T11:12:58.503Z,8.43
2018-03-26T11:15:26.014Z,7.03
2018-03-26T11:17:53.492Z,8.50
2018-03-26T11:20:20.978Z,7.07
2018-03-26T11:22:48.497Z,9.10
2018-03-26T11:25:16.002Z,7.60
2018-03-26T11:27:43.474Z,6.47
2018-03-26T11:30:11.750Z,7.70
2018-03-26T11:32:40.000Z,9.07
2018-03-26T11:35:07.503Z,9.27
2018-03-26T11:37:35.777Z,7.77
2018-03-26T11:40:04.042Z,7.27
2018-03-26T11:42:32.291Z,8.07
2018-03-26T11:44:59.820Z,9.27
2018-03-26T11:47:27.295Z,8.43
2018-03-26T11:49:54.774Z,8.43
2018-03-26T11:52:22.283Z,7.00
2018-03-26T11:54:49.787Z,8.80
2018-03-26T11:57:17.916Z,7.90
2018-03-26T11:59:45.431Z,10.50
2018-03-26T12:02:12.940Z,13.17
2018-03-26T12:04:40.414Z,10.97
2018-03-26T12:07:07.917Z,13.50
2018-03-26T12:09:36.193Z,11.70
2018-03-26T12:12:04.441Z,10.70
2018-03-26T12:14:31.938Z,10.23
2018-03-26T12:17:00.175Z,9.87
2018-03-26T12:19:27.678Z,7.27
2018-03-26T12:21:55.938Z,7.83
2018-03-26T12:24:36.040Z,9.80
2018-03-26T12:27:03.539Z,9.17
2018-03-26T12:29:42.986Z,7.13
2018-03-26T12:32:11.287Z,7.73
2018-03-26T12:34:50.625Z,9.33
2018-03-26T12:37:18.127Z,8.93
2018-03-26T12:39:45.595Z,7.93
2018-03-26T12:42:13.918Z,9.90
2018-03-26T12:44:53.344Z,7.57
2018-03-26T12:47:21.606Z,6.80
2018-03-26T12:49:49.860Z,8.60
2018-03-26T12:52:29.079Z,8.60
2018-03-26T12:54:56.553Z,8.77
2018-03-26T12:57:36.059Z,11.00
2018-03-26T13:00:03.578Z,12.33
2018-03-26T13:02:31.855Z,12.60
2018-03-26T13:05:00.102Z,11.33
2018-03-26T13:07:27.603Z,12.37
2018-03-26T13:09:55.846Z,9.30
2018-03-26T13:12:23.351Z,10.27
2018-03-26T13:14:50.830Z,8.13
2018-03-26T13:17:18.326Z,9.63
2018-03-26T13:19:45.830Z,9.67
2018-03-26T13:22:13.301Z,9.50
2018-03-26T13:24:40.821Z,11.47
2018-03-26T13:27:09.081Z,12.10
2018-03-26T13:29:36.583Z,11.97
2018-03-26T13:32:04.067Z,10.33
2018-03-26T13:34:31.574Z,9.70
2018-03-26T13:36:59.812Z,9.80
2018-03-26T13:39:27.303Z,8.43
2018-03-26T13:41:55.617Z,9.50
2018-03-26T13:44:23.834Z,9.23
2018-03-26T13:46:51.327Z,8.60
2018-03-26T13:49:19.603Z,10.60
2018-03-26T13:51:47.078Z,9.30
2018-03-26T13:54:14.556Z,9.20
2018-03-26T13:56:42.058Z,8.87
2018-03-26T13:59:09.535Z,6.43
2018-03-26T14:01:37.046Z,7.23
2018-03-26T14:04:04.520Z,5.83
2018-03-26T14:06:32.023Z,7.77
2018-03-26T14:09:11.236Z,4.87
2018-03-26T14:11:51.434Z,4.80
2018-03-26T14:14:30.844Z,4.40
2018-03-26T14:17:10.362Z,3.80
2018-03-26T14:19:38.631Z,4.33
2018-03-26T14:22:06.112Z,4.27
2018-03-26T14:24:34.382Z,5.30
2018-03-26T14:27:02.642Z,4.53
2018-03-26T14:29:30.156Z,4.00
2018-03-26T14:31:57.651Z,5.00
2018-03-26T14:34:25.182Z,4.00
2018-03-26T14:36:52.687Z,4.77
2018-03-26T14:39:20.921Z,3.33
2018-03-26T14:41:48.418Z,4.00
2018-03-26T14:44:16.653Z,3.70
2018-03-26T14:46:44.161Z,4.50
2018-03-26T14:49:12.427Z,3.80
2018-03-26T14:51:40.658Z,3.80
2018-03-26T14:54:08.159Z,3.30
2018-03-26T14:56:36.438Z,3.17
2018-03-26T14:59:04.680Z,3.10
2018-03-26T15:01:32.154Z,3.17
2018-03-26T15:04:01.100Z,3.17
2018-03-26T15:06:28.592Z,3.23
2018-03-26T15:08:56.086Z,3.23
2018-03-26T15:11:24.326Z,3.10
2018-03-26T15:13:51.856Z,3.30
2018-03-26T15:16:19.337Z,3.20
2018-03-26T15:18:46.847Z,3.67
2018-03-26T15:21:14.333Z,2.70
2018-03-26T15:23:41.804Z,2.67
2018-03-26T15:26:09.307Z,3.50
2018-03-26T15:28:37.538Z,3.83
2018-03-26T15:31:05.042Z,3.90
2018-03-26T15:33:33.276Z,4.10
2018-03-26T15:36:00.790Z,3.23
2018-03-26T15:38:29.052Z,6.47
2018-03-26T15:40:57.300Z,31.10
2018-03-26T15:43:24.799Z,7.70
2018-03-26T15:45:53.054Z,4.50
2018-03-26T15:48:20.535Z,6.80
2018-03-26T15:50:48.813Z,21.80
2018-03-26T15:53:17.052Z,8.80
2018-03-26T15:55:44.564Z,5.70
2018-03-26T15:58:12.050Z,6.13
2018-03-26T16:00:39.557Z,9.17
2018-03-26T16:03:13.643Z,8.77
2018-03-26T16:05:41.139Z,5.80
2018-03-26T16:08:08.643Z,5.60
2018-03-26T16:10:36.112Z,5.20
2018-03-26T16:13:03.607Z,5.60
2018-03-26T16:15:31.085Z,6.23
2018-03-26T16:17:58.591Z,7.30
2018-03-26T16:20:26.066Z,5.80
2018-03-26T16:22:54.334Z,9.30
2018-03-26T16:25:21.807Z,5.73
2018-03-26T16:27:50.082Z,5.93
2018-03-26T16:30:18.362Z,5.27
2018-03-26T16:32:46.606Z,6.43
2018-03-26T16:35:14.083Z,6.80
2018-03-26T16:37:41.586Z,6.20
2018-03-26T16:40:09.100Z,5.57
2018-03-26T16:42:43.382Z,5.40
2018-03-26T16:45:10.859Z,6.70
2018-03-26T16:47:38.344Z,5.23
2018-03-26T16:50:06.607Z,7.20
2018-03-26T16:52:34.074Z,5.47
2018-03-26T16:55:02.350Z,5.90
2018-03-26T16:57:30.591Z,6.53
2018-03-26T16:59:58.091Z,6.30
2018-03-26T17:02:26.330Z,6.90
2018-03-26T17:04:53.900Z,5.70
2018-03-26T17:07:21.346Z,5.30
2018-03-26T17:09:48.815Z,5.30
2018-03-26T17:12:16.306Z,7.73
2018-03-26T17:14:44.543Z,6.83
2018-03-26T17:17:12.806Z,5.53
2018-03-26T17:19:40.314Z,6.97
2018-03-26T17:22:08.581Z,6.30
2018-03-26T17:24:36.998Z,6.60
2018-03-26T17:27:04.498Z,6.43
2018-03-26T17:29:31.970Z,6.70
2018-03-26T17:32:00.235Z,7.83
2018-03-26T17:34:27.734Z,7.50
2018-03-26T17:36:55.227Z,6.73
2018-03-26T17:39:22.703Z,7.00
2018-03-26T17:41:50.221Z,7.17
2018-03-26T17:44:17.704Z,7.17
2018-03-26T17:46:45.236Z,7.47
2018-03-26T17:49:12.706Z,7.20
2018-03-26T17:51:40.185Z,6.80
2018-03-26T17:54:07.678Z,8.47
2018-03-26T17:56:35.910Z,8.63
2018-03-26T17:59:03.405Z,7.90
2018-03-26T18:01:30.887Z,8.70
2018-03-26T18:03:59.151Z,8.20
2018-03-26T18:06:27.399Z,6.83
2018-03-26T18:08:54.874Z,7.77
2018-03-26T18:11:22.371Z,7.67
2018-03-26T18:13:49.846Z,8.20
2018-03-26T18:16:17.337Z,7.23
2018-03-26T18:18:44.812Z,7.90
2018-03-26T18:21:13.090Z,13.20
2018-03-26T18:23:41.330Z,17.20
2018-03-26T18:26:08.823Z,10.83
2018-03-26T18:28:37.073Z,9.50
2018-03-26T18:31:04.566Z,9.00
2018-03-26T18:33:32.821Z,9.60
2018-03-26T18:36:00.350Z,7.97
2018-03-26T18:38:27.840Z,8.40
2018-03-26T18:40:55.306Z,8.57
2018-03-26T18:43:22.805Z,8.47
2018-03-26T18:45:50.290Z,8.13
2018-03-26T18:48:17.783Z,8.03
2018-03-26T18:50:46.044Z,8.60
2018-03-26T18:53:13.542Z,9.20
2018-03-26T18:55:41.233Z,8.10
2018-03-26T18:58:08.839Z,9.53
2018-03-26T19:00:37.108Z,10.30
2018-03-26T19:03:04.615Z,10.20
2018-03-26T19:05:32.092Z,10.23
2018-03-26T19:07:59.562Z,10.87
2018-03-26T19:10:27.054Z,11.20
2018-03-26T19:12:55.301Z,10.90
2018-03-26T19:15:22.799Z,11.97
2018-03-26T19:17:51.030Z,13.77
2018-03-26T19:20:18.538Z,14.10
2018-03-26T19:22:46.016Z,14.33
2018-03-26T19:25:13.487Z,13.17
2018-03-26T19:27:40.997Z,13.10
2018-03-26T19:30:08.467Z,11.23
2018-03-26T19:32:36.726Z,9.50
2018-03-26T19:35:04.200Z,9.10
2018-03-26T19:37:32.478Z,10.20
2018-03-26T19:40:00.715Z,10.37
2018-03-26T19:42:28.211Z,8.90
2018-03-26T19:44:56.455Z,10.60
2018-03-26T19:47:24.015Z,11.13
2018-03-26T19:49:52.284Z,10.43
2018-03-26T19:52:19.758Z,10.60
2018-03-26T19:54:47.257Z,11.40
2018-03-26T19:57:14.776Z,11.17
2018-03-26T19:59:43.042Z,10.40
2018-03-26T20:02:10.515Z,9.80
2018-03-26T20:04:38.009Z,10.37
2018-03-26T20:07:05.498Z,10.67
2018-03-26T20:09:33.003Z,12.20
2018-03-26T20:12:01.238Z,13.33
2018-03-26T20:14:28.738Z,14.37
2018-03-26T20:16:56.979Z,13.00
2018-03-26T20:19:24.488Z,14.20
2018-03-26T20:21:52.060Z,13.80
2018-03-26T20:24:19.528Z,13.73
2018-03-26T20:26:47.025Z,12.93
2018-03-26T20:29:14.512Z,13.50
2018-03-26T20:31:42.771Z,13.07
2018-03-26T20:34:10.254Z,11.30
2018-03-26T20:36:37.754Z,12.37
2018-03-26T20:39:05.254Z,12.80
2018-03-26T20:41:33.522Z,12.20
2018-03-26T20:44:01.000Z,11.70
2018-03-26T20:46:28.483Z,12.80
2018-03-26T20:48:55.995Z,12.10
2018-03-26T20:51:23.507Z,12.43
2018-03-26T20:53:50.977Z,11.77
2018-03-26T20:56:18.494Z,11.33
2018-03-26T20:58:45.999Z,11.67
2018-03-26T21:01:14.250Z,12.27
2018-03-26T21:03:41.748Z,10.80
2018-03-26T21:06:09.299Z,11.57
2018-03-26T21:08:36.755Z,12.10
2018-03-26T21:11:04.223Z,12.33
2018-03-26T21:13:31.722Z,12.37
2018-03-26T21:15:59.194Z,12.80
2018-03-26T21:18:26.687Z,13.33
2018-03-26T21:20:54.182Z,11.80
2018-03-26T21:23:22.423Z,11.40
2018-03-26T21:25:49.922Z,12.77
2018-03-26T21:28:18.175Z,11.80
2018-03-26T21:30:45.667Z,12.77
2018-03-26T21:33:13.146Z,12.10
2018-03-26T21:35:40.646Z,12.77
2018-03-26T21:38:08.134Z,11.47
2018-03-26T21:40:35.646Z,13.10
2018-03-26T21:43:03.124Z,13.40
2018-03-26T21:45:30.624Z,12.73
2018-03-26T21:47:58.096Z,14.10
2018-03-26T21:50:25.562Z,13.67
2018-03-26T21:52:53.062Z,14.40
2018-03-26T21:55:21.306Z,10.37
2018-03-26T21:57:48.813Z,13.00
2018-03-26T22:00:19.494Z,12.10
2018-03-26T22:02:47.002Z,13.30
2018-03-26T22:05:15.270Z,13.33
2018-03-26T22:07:43.514Z,14.20
2018-03-26T22:10:11.018Z,13.77
2018-03-26T22:12:39.261Z,13.23
2018-03-26T22:15:06.766Z,13.57
2018-03-26T22:17:34.243Z,13.77
2018-03-26T22:20:01.746Z,14.00
2018-03-26T22:22:29.234Z,12.30
2018-03-26T22:24:56.746Z,13.73
2018-03-26T22:27:24.254Z,14.67
2018-03-26T22:29:51.728Z,14.30
2018-03-26T22:32:19.203Z,14.30
2018-03-26T22:34:46.709Z,14.70
2018-03-26T22:37:14.978Z,12.50
2018-03-26T22:39:42.455Z,12.70
2018-03-26T22:42:10.690Z,14.10
2018-03-26T22:44:38.187Z,14.80
2018-03-26T22:47:06.425Z,15.23
2018-03-26T22:49:33.919Z,15.73
2018-03-26T22:52:02.167Z,15.70
2018-03-26T22:54:29.664Z,13.80
2018-03-26T22:56:57.173Z,14.97
2018-03-26T22:59:24.661Z,15.30
2018-03-26T23:01:52.942Z,16.87
2018-03-26T23:04:21.189Z,13.80
2018-03-26T23:06:48.698Z,14.97
2018-03-26T23:09:16.174Z,14.60
2018-03-26T23:11:43.650Z,16.10
2018-03-26T23:14:11.161Z,15.83
2018-03-26T23:16:39.401Z,16.57
2018-03-26T23:19:06.906Z,16.30
2018-03-26T23:21:34.378Z,16.60
2018-03-26T23:24:01.859Z,18.00
2018-03-26T23:26:29.354Z,16.97
2018-03-26T23:28:57.623Z,17.50
2018-03-26T23:31:25.098Z,16.60
2018-03-26T23:33:53.366Z,16.97
2018-03-26T23:36:21.609Z,16.73
2018-03-26T23:38:49.875Z,17.07
2018-03-26T23:41:17.370Z,17.57
2018-03-26T23:43:44.873Z,17.07
2018-03-26T23:46:12.368Z,17.60
2018-03-26T23:48:39.845Z,17.03
2018-03-26T23:51:08.118Z,16.93
2018-03-26T23:53:35.624Z,17.33
2018-03-26T23:56:03.122Z,17.90
2018-03-26T23:58:30.606Z,17.67
